Time;durP1;ratioP1;P1;durP2;ratioP2;P2;SDS_P1;SDS_P2;PMS_P1;PMS_P2;Temp;Humidity;BMP_temperature;BMP_pressure;BME280_temperature;BME280_humidity;BME280_pressure;Samples;Min_cycle;Max_cycle;Signal;HPM_P1;HPM_P2
2023/07/24 00:00:20;;;;;;;18.48;13.45;;;;;;;20.67;67.11;93120.13;5048848;28;20210;-70
2023/07/24 00:02:45;;;;;;;14.57;13.07;;;;;;;20.54;66.97;93105.28;5050105;28;20185;-70
2023/07/24 00:05:11;;;;;;;18.35;13.45;;;;;;;20.48;67.90;93096.75;5049319;28;20246;-71
2023/07/24 00:07:36;;;;;;;14.93;13.40;;;;;;;20.60;68.67;93115.38;5050022;28;20179;-73
2023/07/24 00:10:03;;;;;;;15.80;13.23;;;;;;;20.63;67.71;93114.72;5046963;28;20345;-73
2023/07/24 00:12:28;;;;;;;15.45;12.75;;;;;;;20.56;67.61;93114.47;5045210;28;20198;-73
2023/07/24 00:14:54;;;;;;;16.42;13.55;;;;;;;20.53;68.15;93112.47;5047973;28;20223;-73
2023/07/24 00:17:19;;;;;;;14.23;12.80;;;;;;;20.38;69.17;93110.44;5053658;28;20174;-73
2023/07/24 00:19:45;;;;;;;15.98;12.80;;;;;;;20.35;68.14;93097.81;5049854;28;20228;-73
2023/07/24 00:22:10;;;;;;;14.80;13.23;;;;;;;20.34;67.80;93106.88;5049313;28;20178;-73
2023/07/24 00:24:35;;;;;;;14.90;12.90;;;;;;;20.26;67.01;93097.13;5048627;28;20198;-73
2023/07/24 00:27:01;;;;;;;17.48;14.32;;;;;;;20.23;66.84;93095.09;5029872;28;20194;-73
2023/07/24 00:29:27;;;;;;;16.60;13.68;;;;;;;20.15;67.55;93109.25;5029827;28;20182;-73
2023/07/24 00:31:52;;;;;;;20.05;14.98;;;;;;;20.00;67.02;93085.16;5049660;28;20201;-73
2023/07/24 00:34:17;;;;;;;21.48;15.10;;;;;;;20.00;66.02;93107.13;5049315;28;20181;-73
2023/07/24 00:36:43;;;;;;;19.02;14.50;;;;;;;19.94;67.05;93099.69;5049032;28;20228;-73
2023/07/24 00:39:08;;;;;;;19.90;14.97;;;;;;;19.95;67.49;93103.91;5049423;28;20213;-73
2023/07/24 00:41:33;;;;;;;21.73;16.23;;;;;;;19.86;66.33;93097.91;5048923;28;20228;-73
2023/07/24 00:43:59;;;;;;;18.77;15.55;;;;;;;19.83;66.27;93078.09;5048473;28;20623;-73
2023/07/24 00:46:24;;;;;;;19.83;14.35;;;;;;;19.82;66.72;93097.75;5048073;28;21836;-73
2023/07/24 00:48:51;;;;;;;20.60;15.93;;;;;;;19.80;67.11;93102.59;5049348;28;20193;-73
2023/07/24 00:51:17;;;;;;;25.25;15.20;;;;;;;19.81;67.29;93101.53;5048997;28;20233;-73
2023/07/24 00:53:42;;;;;;;20.10;14.13;;;;;;;19.88;67.31;93093.03;5049182;28;20209;-73
2023/07/24 00:56:08;;;;;;;20.20;14.53;;;;;;;19.93;66.82;93098.94;5049094;28;20954;-73
2023/07/24 00:58:37;;;;;;;19.88;14.25;;;;;;;20.06;66.20;93099.75;5049291;28;20189;-73
2023/07/24 01:01:03;;;;;;;20.00;14.83;;;;;;;19.88;66.32;93093.81;5049413;28;20225;-73
2023/07/24 01:03:34;;;;;;;21.70;15.37;;;;;;;19.85;66.36;93085.72;5049101;28;20215;-74
2023/07/24 01:06:02;;;;;;;21.07;15.27;;;;;;;19.80;65.71;93094.66;5048738;28;20730;-74
2023/07/24 01:08:28;;;;;;;21.50;15.30;;;;;;;19.69;65.20;93082.88;5046974;28;20185;-74
2023/07/24 01:10:58;;;;;;;24.23;16.23;;;;;;;19.62;64.34;93084.50;5049294;28;20236;-73
2023/07/24 01:13:28;;;;;;;22.98;15.63;;;;;;;19.68;65.13;93089.28;5040551;28;20184;-73
2023/07/24 01:16:00;;;;;;;21.77;15.50;;;;;;;19.61;65.27;93089.00;5052362;28;20212;-72
2023/07/24 01:18:29;;;;;;;25.97;16.27;;;;;;;19.42;65.50;93080.72;5046272;28;20185;-73
2023/07/24 01:20:56;;;;;;;22.87;15.93;;;;;;;19.48;66.00;93079.44;5052374;28;20937;-74
2023/07/24 01:23:50;;;;;;;20.57;15.77;;;;;;;19.48;66.09;93083.97;5052659;28;20186;-73
2023/07/24 01:26:16;;;;;;;21.30;15.73;;;;;;;19.43;66.71;93079.63;5051821;28;20215;-73
2023/07/24 01:28:41;;;;;;;20.03;16.03;;;;;;;19.41;66.80;93083.72;5040365;28;20188;-73
2023/07/24 01:31:07;;;;;;;22.40;16.47;;;;;;;19.30;66.43;93066.63;5052389;28;20279;-73
2023/07/24 01:33:35;;;;;;;23.47;16.13;;;;;;;19.24;67.94;93060.69;5052372;28;20193;-72
2023/07/24 01:36:03;;;;;;;20.87;15.80;;;;;;;19.13;69.87;93073.53;5052355;28;20292;-73
2023/07/24 01:38:31;;;;;;;20.37;14.73;;;;;;;19.27;67.76;93068.00;5052230;28;20180;-73
2023/07/24 01:40:57;;;;;;;23.20;15.73;;;;;;;19.16;68.02;93062.31;5051970;28;20287;-73
2023/07/24 01:43:28;;;;;;;22.40;16.63;;;;;;;19.15;67.71;93059.97;5052330;28;20184;-74
2023/07/24 01:45:54;;;;;;;22.60;15.77;;;;;;;19.22;67.33;93062.91;5051881;28;20227;-74
2023/07/24 01:48:19;;;;;;;20.47;15.17;;;;;;;19.26;67.22;93082.34;5052191;28;20930;-73
2023/07/24 01:50:45;;;;;;;20.43;15.30;;;;;;;19.13;67.58;93099.22;5051921;28;20264;-73
2023/07/24 01:53:10;;;;;;;18.87;15.43;;;;;;;19.05;67.44;93098.16;5051033;28;20219;-73
2023/07/24 01:55:35;;;;;;;22.67;17.30;;;;;;;19.10;66.94;93103.28;5051920;28;20229;-73
2023/07/24 01:58:01;;;;;;;22.60;16.20;;;;;;;19.03;67.33;93102.25;5051915;28;20192;-74
2023/07/24 02:00:26;;;;;;;20.63;15.17;;;;;;;19.13;67.20;93109.81;5052274;28;20323;-73
2023/07/24 02:02:52;;;;;;;23.97;16.27;;;;;;;19.14;66.43;93090.19;5051669;28;20185;-73
2023/07/24 02:05:17;;;;;;;22.30;16.33;;;;;;;19.14;66.29;93095.50;5051308;28;20228;-74
2023/07/24 02:07:42;;;;;;;24.50;16.30;;;;;;;19.01;66.92;93083.25;5051751;28;20238;-73
2023/07/24 02:10:08;;;;;;;24.40;17.43;;;;;;;18.94;66.86;93075.03;5051325;28;20235;-73
2023/07/24 02:12:34;;;;;;;23.30;15.53;;;;;;;18.86;68.46;93059.97;5051637;28;20192;-73
2023/07/24 02:14:59;;;;;;;25.73;17.83;;;;;;;18.92;67.69;93066.63;5051228;28;20227;-74
2023/07/24 02:17:25;;;;;;;25.23;16.23;;;;;;;19.20;63.40;93070.38;5051781;28;20188;-73
2023/07/24 02:19:50;;;;;;;21.30;15.47;;;;;;;19.14;64.42;93059.19;5051322;28;20269;-73
2023/07/24 02:22:16;;;;;;;24.10;16.87;;;;;;;19.31;63.86;93074.25;5051178;28;20195;-73
2023/07/24 02:24:41;;;;;;;23.30;16.30;;;;;;;19.37;64.06;93061.59;5051021;28;20683;-73
2023/07/24 02:27:07;;;;;;;25.33;16.80;;;;;;;19.36;64.60;93066.13;5051585;28;20706;-74
2023/07/24 02:29:33;;;;;;;24.60;15.27;;;;;;;19.43;64.14;93084.13;5051349;28;20193;-74
2023/07/24 02:31:58;;;;;;;23.77;16.10;;;;;;;19.29;65.17;93070.34;5050698;28;20185;-73
2023/07/24 02:34:26;;;;;;;22.17;16.23;;;;;;;19.32;67.65;93072.38;5051630;28;20180;-74
2023/07/24 02:36:55;;;;;;;29.10;17.50;;;;;;;19.29;66.39;93075.66;5050790;28;20217;-74
2023/07/24 02:39:21;;;;;;;23.43;16.90;;;;;;;19.23;65.48;93067.09;5051139;28;20199;-74
2023/07/24 02:41:49;;;;;;;24.07;16.67;;;;;;;19.11;65.50;93059.84;5050764;28;20224;-74
2023/07/24 02:44:14;;;;;;;23.40;16.10;;;;;;;19.06;67.50;93072.50;5051316;28;20193;-74
2023/07/24 02:46:40;;;;;;;24.30;15.97;;;;;;;19.08;66.94;93054.44;5050823;28;20241;-74
2023/07/24 02:49:05;;;;;;;23.33;16.70;;;;;;;19.18;67.23;93072.56;5051319;28;20192;-74
2023/07/24 02:51:31;;;;;;;28.13;16.97;;;;;;;19.03;66.92;93073.13;5050494;28;20227;-74
2023/07/24 02:53:56;;;;;;;23.37;16.93;;;;;;;18.90;66.79;93084.69;5050179;28;20205;-74
2023/07/24 02:56:21;;;;;;;29.13;17.10;;;;;;;18.93;66.89;93073.47;5050603;28;20216;-74
2023/07/24 02:58:47;;;;;;;28.07;17.07;;;;;;;18.85;66.28;93076.91;5050988;28;20195;-73
2023/07/24 03:01:14;;;;;;;24.80;17.33;;;;;;;18.59;66.20;93042.63;5051000;28;20259;-74
2023/07/24 03:03:40;;;;;;;25.40;16.87;;;;;;;18.91;66.88;93073.03;5050994;28;20209;-74
2023/07/24 03:06:05;;;;;;;26.83;17.00;;;;;;;18.89;66.45;93072.56;5049846;28;20268;-73
2023/07/24 03:08:31;;;;;;;22.57;15.63;;;;;;;18.96;66.94;93072.81;5050931;28;20196;-73
2023/07/24 03:10:57;;;;;;;27.37;17.17;;;;;;;18.94;66.11;93064.44;5049985;28;20232;-73
2023/07/24 03:13:22;;;;;;;23.33;16.07;;;;;;;18.87;65.21;93059.66;5050921;28;20194;-73
2023/07/24 03:15:56;;;;;;;28.77;17.77;;;;;;;18.92;64.88;93062.13;5049908;28;20216;-73
2023/07/24 03:18:21;;;;;;;22.87;16.30;;;;;;;18.92;64.72;93061.34;5058885;28;20245;-73
2023/07/24 03:20:47;;;;;;;23.33;15.70;;;;;;;19.13;63.60;93059.50;5054470;28;20223;-73
2023/07/24 03:23:13;;;;;;;23.77;16.50;;;;;;;19.01;64.08;93056.78;5056901;28;20198;-74
2023/07/24 03:25:38;;;;;;;27.57;16.90;;;;;;;19.00;63.85;93063.19;5049868;28;20230;-73
2023/07/24 03:28:04;;;;;;;25.80;15.97;;;;;;;19.03;63.22;93062.53;5050254;28;20301;-73
2023/07/24 03:30:29;;;;;;;22.23;15.40;;;;;;;19.04;63.24;93067.50;5050344;28;20215;-73
2023/07/24 03:32:54;;;;;;;23.53;16.33;;;;;;;19.06;63.05;93067.19;5050411;28;20199;-73
2023/07/24 03:35:20;;;;;;;24.23;16.13;;;;;;;19.11;62.70;93070.41;5048121;28;20211;-74
2023/07/24 03:37:45;;;;;;;25.17;17.33;;;;;;;19.02;62.76;93071.56;5050133;28;20188;-73
2023/07/24 03:40:11;;;;;;;22.40;16.63;;;;;;;19.08;63.22;93065.00;5049697;28;20228;-73
2023/07/24 03:42:37;;;;;;;22.97;16.03;;;;;;;19.09;64.68;93069.97;5050482;28;20196;-73
2023/07/24 03:45:02;;;;;;;48.90;18.53;;;;;;;18.79;68.52;93038.50;5049542;28;20232;-73
2023/07/24 03:47:28;;;;;;;31.07;16.80;;;;;;;19.17;68.88;93078.97;5050464;28;20203;-74
2023/07/24 03:49:53;;;;;;;23.77;16.07;;;;;;;19.26;69.31;93077.06;5053806;28;20236;-74
2023/07/24 03:52:19;;;;;;;21.80;16.47;;;;;;;19.23;70.02;93079.56;5050054;28;20195;-73
2023/07/24 03:54:45;;;;;;;22.17;15.80;;;;;;;19.22;68.63;93070.84;5049593;28;20188;-73
2023/07/24 03:57:10;;;;;;;22.83;15.77;;;;;;;19.14;69.95;93059.19;5050245;28;20184;-74
2023/07/24 03:59:36;;;;;;;24.47;16.33;;;;;;;19.29;68.52;93054.47;5047729;28;20184;-74
2023/07/24 04:02:01;;;;;;;24.73;15.27;;;;;;;19.36;68.16;93065.34;5030465;28;20202;-74
2023/07/24 04:04:27;;;;;;;21.67;16.33;;;;;;;19.31;68.58;93071.59;5029813;28;20220;-74
2023/07/24 04:06:52;;;;;;;21.23;15.87;;;;;;;19.31;68.57;93081.41;5049706;28;20198;-74
2023/07/24 04:09:17;;;;;;;24.20;15.50;;;;;;;19.34;67.56;93049.78;5049733;28;20220;-74
2023/07/24 04:11:44;;;;;;;22.07;15.53;;;;;;;19.75;66.82;93088.78;5049559;28;20220;-74
2023/07/24 04:14:10;;;;;;;24.77;16.07;;;;;;;19.91;66.58;93095.81;5049552;28;20228;-74
2023/07/24 04:16:35;;;;;;;21.13;16.60;;;;;;;20.06;66.56;93097.88;5050642;28;20233;-73
2023/07/24 04:19:00;;;;;;;20.27;15.50;;;;;;;20.25;66.50;93103.53;5061411;28;20247;-73
2023/07/24 04:21:26;;;;;;;19.90;15.82;;;;;;;20.21;67.54;93105.28;5049278;28;20216;-75
2023/07/24 04:23:51;;;;;;;21.60;16.08;;;;;;;20.36;66.96;93103.88;5081730;28;20535;-73
2023/07/24 04:26:17;;;;;;;24.33;16.13;;;;;;;20.38;68.29;93091.88;5062692;28;20224;-69
2023/07/24 04:28:42;;;;;;;22.23;16.50;;;;;;;20.38;69.70;93097.16;5050568;28;20838;-69
2023/07/24 04:31:07;;;;;;;20.77;15.90;;;;;;;20.78;69.03;93102.69;5049989;28;20248;-69
2023/07/24 04:33:33;;;;;;;19.10;15.57;;;;;;;20.86;68.83;93093.84;5058085;28;20195;-68
2023/07/24 04:35:58;;;;;;;18.02;14.50;;;;;;;20.87;69.75;93084.03;5049139;28;20232;-71
2023/07/24 04:38:24;;;;;;;20.90;15.50;;;;;;;21.03;69.12;93082.31;5041803;28;20183;-74
2023/07/24 04:40:49;;;;;;;24.83;15.50;;;;;;;21.06;69.16;93084.31;5040059;28;20334;-73
2023/07/24 04:43:14;;;;;;;23.77;18.60;;;;;;;21.18;67.56;93074.47;5040357;28;20212;-73
2023/07/24 04:45:40;;;;;;;22.88;16.23;;;;;;;21.16;66.51;93083.84;5042349;28;20228;-73
2023/07/24 04:48:05;;;;;;;20.45;16.00;;;;;;;21.07;67.25;93060.06;5048770;28;20252;-73
2023/07/24 04:50:31;;;;;;;21.83;17.90;;;;;;;21.73;65.42;93101.19;5048810;28;20303;-73
2023/07/24 04:52:56;;;;;;;24.88;18.08;;;;;;;21.79;66.13;93099.13;5044816;28;20201;-72
2023/07/24 04:55:22;;;;;;;20.27;15.20;;;;;;;21.57;68.59;93104.88;5051354;28;20239;-76
2023/07/24 04:57:48;;;;;;;21.83;16.00;;;;;;;21.50;67.81;93091.38;5052325;28;20189;-70
2023/07/24 05:00:14;;;;;;;22.73;17.15;;;;;;;21.63;62.74;93100.88;5051548;28;20224;-69
2023/07/24 05:02:39;;;;;;;20.20;16.15;;;;;;;21.59;64.70;93097.34;5038220;28;20186;-68
2023/07/24 05:05:05;;;;;;;21.08;16.48;;;;;;;22.04;65.10;93106.69;5051548;28;20255;-69
2023/07/24 05:07:30;;;;;;;22.95;15.98;;;;;;;22.14;64.94;93103.59;5043437;28;20259;-67
2023/07/24 05:09:56;;;;;;;22.52;16.27;;;;;;;22.82;63.42;93112.28;5051998;28;20227;-67
2023/07/24 05:12:21;;;;;;;19.27;15.15;;;;;;;23.03;62.12;93102.19;5041676;28;20196;-66
2023/07/24 05:14:47;;;;;;;21.73;16.25;;;;;;;22.86;63.62;93112.41;5051726;28;20221;-67
2023/07/24 05:17:12;;;;;;;23.17;15.55;;;;;;;23.09;62.66;93103.50;5051579;28;20192;-68
2023/07/24 05:19:37;;;;;;;20.80;15.70;;;;;;;22.47;64.69;93047.47;5051584;28;20195;-68
2023/07/24 05:22:03;;;;;;;19.13;15.40;;;;;;;23.02;63.94;93108.63;5047824;28;20185;-69
2023/07/24 05:24:28;;;;;;;20.25;15.90;;;;;;;22.83;63.40;93100.53;5051795;28;20184;-70
2023/07/24 05:26:54;;;;;;;22.52;15.85;;;;;;;23.17;60.86;93109.75;5036480;28;20180;-69
2023/07/24 05:29:19;;;;;;;20.88;16.00;;;;;;;22.94;61.00;93109.56;5047335;28;20905;-69
2023/07/24 05:31:45;;;;;;;23.63;16.13;;;;;;;23.05;60.58;93102.59;5029957;28;20229;-71
2023/07/24 05:34:10;;;;;;;24.90;16.15;;;;;;;23.06;61.01;93111.38;5032823;28;20245;-69
2023/07/24 05:36:35;;;;;;;19.73;14.77;;;;;;;23.08;61.44;93109.91;5062746;28;20321;-69
2023/07/24 05:39:01;;;;;;;20.05;15.93;;;;;;;22.90;62.06;93114.03;5032096;28;20198;-67
2023/07/24 05:41:26;;;;;;;19.13;14.15;;;;;;;22.93;62.19;93108.03;5030293;28;20224;-70
2023/07/24 05:43:51;;;;;;;25.33;16.27;;;;;;;23.10;61.07;93105.03;5038334;28;20197;-70
2023/07/24 05:46:17;;;;;;;25.75;15.77;;;;;;;23.51;60.56;93101.88;5032761;28;20278;-71
2023/07/24 05:48:42;;;;;;;22.48;15.63;;;;;;;23.60;60.30;93104.34;5022334;28;20192;-70
2023/07/24 05:51:07;;;;;;;23.80;15.88;;;;;;;24.02;59.95;93099.97;5024573;28;20240;-68
2023/07/24 05:53:33;;;;;;;23.63;16.73;;;;;;;25.15;55.91;93092.25;5028769;28;20210;-69
2023/07/24 05:56:02;;;;;;;26.98;15.30;;;;;;;26.72;50.95;93109.84;5034388;28;20230;-70
2023/07/24 05:58:28;;;;;;;28.65;15.57;;;;;;;29.92;42.70;93105.50;5017588;28;20222;-73
2023/07/24 06:00:54;;;;;;;20.83;15.48;;;;;;;30.80;39.88;93114.16;5040131;28;20229;-72
2023/07/24 06:03:19;;;;;;;20.90;14.68;;;;;;;33.75;32.86;93119.41;5045034;28;20207;-70
2023/07/24 06:05:45;;;;;;;25.33;15.32;;;;;;;35.56;30.70;93128.06;5046861;28;20256;-71
2023/07/24 06:08:11;;;;;;;21.38;15.65;;;;;;;35.54;28.29;93119.56;5039317;28;20246;-71
2023/07/24 06:10:36;;;;;;;28.52;16.33;;;;;;;37.40;25.96;93127.63;5050334;28;20283;-71
2023/07/24 06:13:02;;;;;;;21.02;15.27;;;;;;;36.63;26.96;93127.00;5042186;28;20228;-71
2023/07/24 06:15:27;;;;;;;21.85;15.65;;;;;;;36.31;25.93;93127.09;5049320;28;20811;-72
2023/07/24 06:17:53;;;;;;;20.58;15.40;;;;;;;35.01;27.21;93105.56;5046334;28;20186;-74
2023/07/24 06:20:18;;;;;;;20.42;14.32;;;;;;;36.60;26.87;93130.59;5044867;28;20217;-71
2023/07/24 06:22:43;;;;;;;20.17;14.23;;;;;;;37.37;25.24;93127.72;5037715;28;20175;-71
2023/07/24 06:25:09;;;;;;;21.13;14.20;;;;;;;36.05;25.35;93125.41;5046567;28;20234;-70
2023/07/24 06:27:34;;;;;;;18.30;13.88;;;;;;;36.61;25.92;93134.88;5045440;28;20200;-70
2023/07/24 06:29:59;;;;;;;23.58;15.13;;;;;;;36.78;26.36;93128.22;5047558;28;20269;-69
2023/07/24 06:32:25;;;;;;;19.50;13.15;;;;;;;36.15;27.66;93127.84;5046778;28;20210;-70
2023/07/24 06:34:50;;;;;;;16.65;13.63;;;;;;;36.74;26.39;93125.53;5046067;28;20237;-70
2023/07/24 06:37:15;;;;;;;14.80;12.40;;;;;;;36.70;27.45;93124.88;5048931;28;20193;-71
2023/07/24 06:39:41;;;;;;;16.58;13.38;;;;;;;38.43;24.60;93143.06;5048581;28;20182;-70
2023/07/24 06:42:07;;;;;;;19.42;13.60;;;;;;;36.62;27.19;93133.66;5050042;28;20204;-70
2023/07/24 06:44:32;;;;;;;15.88;13.68;;;;;;;35.99;28.36;93125.13;5048748;28;20182;-71
2023/07/24 06:46:58;;;;;;;16.05;12.57;;;;;;;32.98;32.95;93110.44;5050908;28;20175;-69
2023/07/24 06:49:23;;;;;;;18.05;13.43;;;;;;;29.27;39.63;93111.19;5049982;28;20235;-68
2023/07/24 06:51:49;;;;;;;17.27;13.02;;;;;;;28.77;41.08;93106.81;5049093;28;20232;-69
2023/07/24 06:54:14;;;;;;;22.85;15.18;;;;;;;28.54;42.12;93099.06;5049475;28;20198;-71
2023/07/24 06:56:39;;;;;;;20.55;14.35;;;;;;;27.71;43.36;93100.06;5050513;28;20214;-72
2023/07/24 06:59:05;;;;;;;17.00;13.65;;;;;;;27.10;47.90;93094.53;5050732;28;20188;-72
2023/07/24 07:01:30;;;;;;;19.10;14.65;;;;;;;26.76;47.74;93088.44;5050378;28;20229;-69
2023/07/24 07:03:55;;;;;;;21.08;14.85;;;;;;;26.76;47.76;93098.41;5050357;28;20191;-69
2023/07/24 07:06:21;;;;;;;23.98;14.07;;;;;;;26.47;49.90;93102.63;5043614;28;20213;-70
2023/07/24 07:08:46;;;;;;;17.83;14.27;;;;;;;26.20;51.23;93101.13;5050503;28;20193;-70
2023/07/24 07:11:12;;;;;;;21.42;15.32;;;;;;;25.21;53.89;93102.28;5050180;28;20286;-69
2023/07/24 07:13:37;;;;;;;16.80;14.32;;;;;;;26.27;51.83;93110.03;5050557;28;20849;-70
2023/07/24 07:16:04;;;;;;;21.83;14.52;;;;;;;26.19;52.19;93111.09;5049153;28;20950;-69
2023/07/24 07:18:29;;;;;;;23.25;15.27;;;;;;;25.88;53.59;93108.72;5050037;28;20204;-69
2023/07/24 07:20:55;;;;;;;24.92;15.35;;;;;;;26.37;52.03;93109.41;5049053;28;20297;-70
2023/07/24 07:23:21;;;;;;;18.00;14.75;;;;;;;26.50;52.14;93101.91;5048350;28;20238;-71
2023/07/24 07:25:47;;;;;;;15.52;13.85;;;;;;;26.45;51.42;93094.97;5048986;28;20232;-70
2023/07/24 07:28:13;;;;;;;22.75;15.88;;;;;;;25.92;54.58;93088.13;5050157;28;20192;-70
2023/07/24 07:30:40;;;;;;;20.50;14.93;;;;;;;26.27;52.26;93088.59;5045264;28;20229;-70
2023/07/24 07:33:05;;;;;;;24.23;16.40;;;;;;;25.73;55.04;93088.22;5051011;28;20253;-69
2023/07/24 07:35:35;;;;;;;17.27;15.48;;;;;;;26.16;55.41;93082.38;5043404;28;20252;-70
2023/07/24 07:38:01;;;;;;;20.45;16.63;;;;;;;26.62;53.31;93094.41;5049535;28;20199;-70
2023/07/24 07:40:27;;;;;;;17.88;15.30;;;;;;;26.90;50.57;93088.59;5048757;28;20225;-70
2023/07/24 07:42:53;;;;;;;21.27;16.38;;;;;;;26.52;51.16;93092.34;5050082;28;20220;-69
2023/07/24 07:45:19;;;;;;;22.67;15.82;;;;;;;26.56;50.51;93095.88;5049095;28;20221;-70
2023/07/24 07:47:44;;;;;;;21.90;16.50;;;;;;;26.57;51.31;93092.03;5049835;28;20194;-70
2023/07/24 07:50:10;;;;;;;21.10;15.60;;;;;;;26.16;54.37;93094.97;5049188;28;20285;-70
2023/07/24 07:52:35;;;;;;;24.30;16.35;;;;;;;26.53;53.31;93085.09;5049736;28;20182;-70
2023/07/24 07:55:01;;;;;;;20.20;15.90;;;;;;;26.98;50.24;93094.78;5049482;28;20245;-70
2023/07/24 07:57:26;;;;;;;19.48;15.32;;;;;;;27.01;50.71;93094.06;5049601;28;20174;-73
2023/07/24 07:59:52;;;;;;;22.13;16.20;;;;;;;26.62;49.34;93083.69;5049174;28;20235;-70
2023/07/24 08:02:17;;;;;;;22.55;15.55;;;;;;;26.43;50.60;93078.47;5049488;28;20176;-69
2023/07/24 08:04:42;;;;;;;20.35;15.73;;;;;;;26.64;51.36;93078.78;5048881;28;20225;-69
2023/07/24 08:07:08;;;;;;;19.00;15.40;;;;;;;27.25;50.64;93098.88;5049426;28;20198;-70
2023/07/24 08:09:33;;;;;;;16.70;14.45;;;;;;;27.30;49.85;93095.91;5049058;28;20232;-72
2023/07/24 08:11:59;;;;;;;18.67;14.55;;;;;;;27.15;50.80;93088.81;5049407;28;20193;-71
2023/07/24 08:14:24;;;;;;;20.98;14.50;;;;;;;27.18;50.02;93099.59;5049221;28;20179;-72
2023/07/24 08:16:50;;;;;;;15.80;13.23;;;;;;;27.18;48.62;93090.75;5048591;28;20225;-70
2023/07/24 08:19:15;;;;;;;17.58;14.55;;;;;;;27.19;48.40;93087.72;5049128;28;20178;-71
2023/07/24 08:21:41;;;;;;;19.10;14.63;;;;;;;26.61;50.54;93086.72;5047460;28;20470;-70
2023/07/24 08:24:07;;;;;;;17.38;14.55;;;;;;;26.88;49.10;93084.75;5049178;28;20182;-70
2023/07/24 08:26:32;;;;;;;19.08;15.00;;;;;;;26.56;51.42;93079.78;5048867;28;20232;-70
2023/07/24 08:28:58;;;;;;;19.05;14.35;;;;;;;26.35;50.42;93057.34;5052455;28;20194;-71
2023/07/24 08:31:23;;;;;;;17.30;14.02;;;;;;;27.01;48.67;93068.03;5048143;28;20214;-71
2023/07/24 08:33:48;;;;;;;18.88;14.15;;;;;;;27.20;49.11;93067.03;5048847;28;20726;-70
2023/07/24 08:36:14;;;;;;;17.42;14.15;;;;;;;27.31;48.78;93059.88;5048251;28;20496;-71
2023/07/24 08:38:40;;;;;;;17.70;14.23;;;;;;;27.71;47.58;93068.63;5049043;28;20243;-70
2023/07/24 08:41:12;;;;;;;20.92;14.25;;;;;;;27.61;48.48;93073.94;5048642;28;20272;-71
2023/07/24 08:43:39;;;;;;;19.30;13.88;;;;;;;27.87;47.84;93066.47;5037054;28;20194;-71
2023/07/24 08:46:06;;;;;;;21.42;15.00;;;;;;;27.72;47.85;93064.03;5077087;28;20222;-71
2023/07/24 08:48:50;;;;;;;17.20;13.15;;;;;;;27.62;48.09;93059.34;5049185;28;20197;-71
2023/07/24 08:51:24;;;;;;;14.57;12.90;;;;;;;27.74;47.03;93048.31;5045257;28;20258;-71
2023/07/24 08:53:50;;;;;;;17.40;13.27;;;;;;;28.03;42.98;93061.56;5048955;28;20185;-70
2023/07/24 08:56:15;;;;;;;18.77;14.00;;;;;;;27.97;44.78;93067.69;5048477;28;20281;-70
2023/07/24 08:58:41;;;;;;;16.30;13.30;;;;;;;28.08;43.85;93063.13;5048721;28;20189;-72
2023/07/24 09:01:08;;;;;;;17.08;13.48;;;;;;;27.95;42.73;93070.75;5048537;28;20222;-70
2023/07/24 09:03:34;;;;;;;16.90;13.32;;;;;;;28.01;41.24;93076.50;5049332;28;20178;-70
2023/07/24 09:06:01;;;;;;;20.42;14.63;;;;;;;27.56;45.08;93064.31;5047950;28;20233;-70
2023/07/24 09:08:33;;;;;;;17.98;13.25;;;;;;;28.06;44.12;93062.75;5049139;28;20194;-70
2023/07/24 09:11:01;;;;;;;21.63;14.85;;;;;;;28.15;44.20;93063.16;5048023;28;20253;-71
2023/07/24 09:13:27;;;;;;;16.98;13.18;;;;;;;28.15;44.25;93060.47;5048959;28;20213;-71
2023/07/24 09:15:53;;;;;;;17.20;14.05;;;;;;;28.18;45.37;93065.09;5047075;28;20238;-70
2023/07/24 09:18:19;;;;;;;18.80;13.88;;;;;;;28.44;45.28;93056.00;5048780;28;20181;-70
2023/07/24 09:20:45;;;;;;;17.33;14.38;;;;;;;28.57;45.39;93049.94;5030988;28;20225;-70
2023/07/24 09:23:12;;;;;;;17.98;14.38;;;;;;;28.87;44.40;93071.91;5043616;28;20190;-71
2023/07/24 09:25:42;;;;;;;17.33;13.95;;;;;;;28.98;44.61;93063.88;5048306;28;20249;-71
2023/07/24 09:28:11;;;;;;;21.42;15.13;;;;;;;28.82;41.87;93055.38;5048470;28;20199;-71
2023/07/24 09:30:37;;;;;;;19.20;13.43;;;;;;;28.00;43.54;93048.88;5063750;28;20229;-72
2023/07/24 09:33:02;;;;;;;21.83;14.07;;;;;;;28.12;43.69;93051.28;5050805;28;20194;-69
2023/07/24 09:35:28;;;;;;;24.05;14.35;;;;;;;28.08;45.04;93042.41;5039624;28;20305;-70
2023/07/24 09:38:07;;;;;;;20.35;14.65;;;;;;;28.68;42.79;93048.06;5052436;28;20184;-70
2023/07/24 09:40:44;;;;;;;22.42;14.20;;;;;;;28.85;41.53;93043.84;5040954;28;20617;-69
2023/07/24 09:43:25;;;;;;;21.00;14.95;;;;;;;28.66;43.03;93036.91;5051938;28;20185;-71
2023/07/24 09:45:52;;;;;;;20.55;14.50;;;;;;;28.58;44.06;93024.59;5051825;28;20230;-71
2023/07/24 09:48:19;;;;;;;20.42;14.02;;;;;;;28.99;43.42;93031.22;5052096;28;20208;-71
2023/07/24 09:50:47;;;;;;;17.40;13.90;;;;;;;29.02;42.15;93022.38;5051754;28;20245;-70
2023/07/24 09:53:19;;;;;;;24.50;15.20;;;;;;;28.89;43.27;93015.06;5052003;28;20272;-70
2023/07/24 09:56:05;;;;;;;22.70;14.90;;;;;;;29.20;40.72;93007.03;5051960;28;20245;-70
2023/07/24 09:58:35;;;;;;;23.15;15.73;;;;;;;29.25;41.32;93019.34;5049492;28;20283;-72
2023/07/24 10:01:06;;;;;;;19.23;13.98;;;;;;;28.90;41.61;93003.94;5050085;28;20236;-71
2023/07/24 10:03:34;;;;;;;20.77;13.48;;;;;;;29.16;40.47;93016.25;5045806;28;20200;-71
2023/07/24 10:06:00;;;;;;;23.63;14.82;;;;;;;29.45;39.93;93012.41;5049770;28;20898;-71
2023/07/24 10:08:27;;;;;;;21.75;14.02;;;;;;;28.99;40.48;93011.63;5051967;28;20185;-71
2023/07/24 10:10:53;;;;;;;23.30;13.80;;;;;;;29.19;41.16;93005.50;5046346;28;20275;-72
2023/07/24 10:13:20;;;;;;;20.50;13.55;;;;;;;28.96;40.72;93002.41;5050796;28;20178;-71
2023/07/24 10:15:47;;;;;;;19.95;13.93;;;;;;;29.35;40.01;92994.38;5051498;28;20223;-72
2023/07/24 10:18:15;;;;;;;19.02;13.57;;;;;;;29.48;41.47;92995.53;5051439;28;20181;-71
2023/07/24 10:20:42;;;;;;;20.75;13.95;;;;;;;29.66;39.89;92988.97;5051288;28;20226;-71
2023/07/24 10:23:16;;;;;;;16.33;13.73;;;;;;;29.71;38.73;92993.94;5051382;28;20190;-71
2023/07/24 10:25:44;;;;;;;22.38;14.20;;;;;;;29.61;38.62;92989.34;5051715;28;20232;-70
2023/07/24 10:28:12;;;;;;;21.33;14.63;;;;;;;29.50;39.70;92982.41;5050040;28;20260;-71
2023/07/24 10:30:39;;;;;;;16.33;13.07;;;;;;;29.63;40.96;92973.59;5051391;28;20218;-71
2023/07/24 10:33:09;;;;;;;22.23;14.63;;;;;;;29.61;41.51;92967.81;5051273;28;20195;-71
2023/07/24 10:35:45;;;;;;;21.83;13.18;;;;;;;29.69;40.22;92972.06;5039674;28;20218;-71
2023/07/24 10:38:13;;;;;;;25.17;16.65;;;;;;;29.75;40.79;92975.09;5044405;28;20217;-72
2023/07/24 10:40:42;;;;;;;21.02;12.73;;;;;;;29.77;40.78;92963.94;5049581;28;20247;-72
2023/07/24 10:43:10;;;;;;;21.05;13.52;;;;;;;29.50;39.32;92968.97;5049439;28;20212;-72
2023/07/24 10:45:42;;;;;;;13.38;11.38;;;;;;;30.16;39.75;92964.56;5047078;28;20220;-72
2023/07/24 10:48:11;;;;;;;17.23;12.65;;;;;;;30.02;38.86;92965.41;5050925;28;20190;-71
2023/07/24 10:50:38;;;;;;;17.88;12.10;;;;;;;29.93;38.55;92972.38;5051289;28;20214;-71
2023/07/24 10:53:03;;;;;;;18.55;13.18;;;;;;;30.12;38.60;92964.59;5041831;28;20190;-72
2023/07/24 10:55:28;;;;;;;21.10;12.50;;;;;;;30.28;38.65;92956.84;5050278;28;20227;-71
2023/07/24 10:57:54;;;;;;;15.05;11.88;;;;;;;30.65;36.05;92954.31;5050698;28;20294;-70
2023/07/24 11:00:19;;;;;;;16.40;12.57;;;;;;;30.72;38.52;92959.69;5049952;28;20229;-71
2023/07/24 11:02:45;;;;;;;15.40;12.00;;;;;;;30.60;35.87;92960.13;5050534;28;20190;-70
2023/07/24 11:05:12;;;;;;;12.27;11.07;;;;;;;30.80;35.67;92955.78;5050361;28;20236;-70
2023/07/24 11:07:37;;;;;;;24.88;14.57;;;;;;;30.60;36.00;92952.03;5048019;28;20193;-71
2023/07/24 11:10:03;;;;;;;14.70;11.55;;;;;;;30.49;36.96;92931.72;5043037;28;20249;-70
2023/07/24 11:12:31;;;;;;;20.33;11.98;;;;;;;30.43;36.76;92949.47;5049420;28;20185;-70